createdAt,value
2017-08-16T00:00:15.229Z,0
2017-08-16T00:01:25.278Z,0
2017-08-16T00:02:35.611Z,0
2017-08-16T00:03:45.976Z,0
2017-08-16T00:04:56.021Z,0
2017-08-16T00:06:06.107Z,0
2017-08-16T00:07:15.843Z,0
2017-08-16T00:08:26.202Z,0
2017-08-16T00:09:36.261Z,0
2017-08-16T00:10:46.310Z,0
2017-08-16T00:11:56.398Z,0
2017-08-16T00:13:06.732Z,0
2017-08-16T00:14:17.557Z,0
2017-08-16T00:15:27.279Z,0
2017-08-16T00:16:37.619Z,0
2017-08-16T00:17:48.015Z,0
2017-08-16T00:18:58.055Z,0
2017-08-16T00:20:08.101Z,0
2017-08-16T00:21:18.450Z,0
2017-08-16T00:22:28.502Z,0
2017-08-16T00:23:38.902Z,0
2017-08-16T00:24:49.238Z,0
2017-08-16T00:26:03.311Z,0
2017-08-16T00:27:13.704Z,0
2017-08-16T00:28:23.745Z,0
2017-08-16T00:29:33.841Z,0
2017-08-16T00:30:43.896Z,0
2017-08-16T00:31:54.249Z,0
2017-08-16T00:33:04.601Z,0
2017-08-16T00:34:14.958Z,0
2017-08-16T00:35:25.050Z,0
2017-08-16T00:36:35.089Z,0
2017-08-16T00:37:45.428Z,0
2017-08-16T00:38:55.781Z,0
2017-08-16T00:40:06.137Z,0
2017-08-16T00:41:16.234Z,0
2017-08-16T00:42:26.262Z,0
2017-08-16T00:43:36.306Z,0
2017-08-16T00:44:46.664Z,0
2017-08-16T00:45:56.700Z,0
2017-08-16T00:47:06.786Z,0
2017-08-16T00:48:17.130Z,0
2017-08-16T00:49:27.175Z,0
2017-08-16T00:50:37.529Z,0
2017-08-16T00:51:47.566Z,0
2017-08-16T00:52:57.651Z,0
2017-08-16T00:54:07.987Z,0
2017-08-16T00:55:18.341Z,0
2017-08-16T00:56:28.381Z,0
2017-08-16T00:57:38.818Z,0
2017-08-16T00:58:49.168Z,0
2017-08-16T00:59:59.517Z,0
2017-08-16T01:01:09.894Z,0
2017-08-16T01:02:20.241Z,0
2017-08-16T01:03:30.639Z,0
2017-08-16T01:04:42.651Z,0
2017-08-16T01:05:52.997Z,0
2017-08-16T01:07:03.044Z,0
2017-08-16T01:08:13.392Z,0
2017-08-16T01:09:23.492Z,0
2017-08-16T01:10:33.853Z,0
2017-08-16T01:11:44.203Z,0
2017-08-16T01:12:54.542Z,0
2017-08-16T01:14:04.882Z,0
2017-08-16T01:15:15.287Z,0
2017-08-16T01:16:25.648Z,0
2017-08-16T01:17:35.677Z,0
2017-08-16T01:18:45.712Z,0
2017-08-16T01:19:56.062Z,0
2017-08-16T01:21:06.473Z,0
2017-08-16T01:22:16.517Z,0
2017-08-16T01:23:26.873Z,0
2017-08-16T01:24:36.922Z,0
2017-08-16T01:25:47.285Z,0
2017-08-16T01:26:57.682Z,0
2017-08-16T01:28:07.726Z,0
2017-08-16T01:29:17.754Z,0
2017-08-16T01:30:27.788Z,0
2017-08-16T01:31:38.146Z,0
2017-08-16T01:32:48.560Z,0
2017-08-16T01:33:58.894Z,0
2017-08-16T01:35:08.973Z,0
2017-08-16T01:36:19.313Z,0
2017-08-16T01:37:29.668Z,0
2017-08-16T01:38:40.073Z,0
2017-08-16T01:39:52.159Z,0
2017-08-16T01:41:02.520Z,0
2017-08-16T01:42:12.856Z,0
2017-08-16T01:43:22.577Z,0
2017-08-16T01:44:32.663Z,0
2017-08-16T01:45:43.009Z,0
2017-08-16T01:46:53.063Z,0
2017-08-16T01:48:03.094Z,0
2017-08-16T01:49:13.430Z,0
2017-08-16T01:50:23.835Z,0
2017-08-16T01:51:34.202Z,0
2017-08-16T01:52:44.548Z,0
2017-08-16T01:53:54.596Z,0
2017-08-16T01:55:04.947Z,0
2017-08-16T01:56:15.042Z,0
2017-08-16T01:57:25.402Z,0
2017-08-16T01:58:35.432Z,0
2017-08-16T01:59:45.777Z,0
2017-08-16T02:00:56.117Z,0
2017-08-16T02:02:06.510Z,0
2017-08-16T02:03:16.531Z,0
2017-08-16T02:04:26.869Z,0
2017-08-16T02:05:37.226Z,0
2017-08-16T02:06:47.583Z,0
2017-08-16T02:07:57.999Z,0
2017-08-16T02:09:08.343Z,0
2017-08-16T02:10:18.384Z,0
2017-08-16T02:11:28.115Z,0
2017-08-16T02:12:38.458Z,0
2017-08-16T02:13:48.855Z,0
2017-08-16T02:14:59.209Z,0
2017-08-16T02:16:09.560Z,0
2017-08-16T02:17:19.908Z,0
2017-08-16T02:18:30.251Z,0
2017-08-16T02:19:40.645Z,0
2017-08-16T02:20:50.687Z,0
2017-08-16T02:22:01.050Z,0
2017-08-16T02:23:11.084Z,0
2017-08-16T02:24:21.443Z,0
2017-08-16T02:25:31.517Z,0
2017-08-16T02:26:42.864Z,0
2017-08-16T02:27:53.209Z,0
2017-08-16T02:29:03.259Z,0
2017-08-16T02:30:13.605Z,0
2017-08-16T02:31:24.027Z,0
2017-08-16T02:32:34.075Z,0
2017-08-16T02:33:44.418Z,0
2017-08-16T02:34:54.782Z,0
2017-08-16T02:36:04.829Z,0
2017-08-16T02:37:14.920Z,0
2017-08-16T02:38:25.305Z,0
2017-08-16T02:39:35.665Z,0
2017-08-16T02:40:46.005Z,0
2017-08-16T02:41:56.052Z,0
2017-08-16T02:43:06.136Z,0
2017-08-16T02:44:16.182Z,0
2017-08-16T02:45:26.542Z,0
2017-08-16T02:46:36.895Z,0
2017-08-16T02:47:47.255Z,0
2017-08-16T02:48:57.353Z,0
2017-08-16T02:50:07.071Z,0
2017-08-16T02:51:16.805Z,0
2017-08-16T02:52:27.149Z,0
2017-08-16T02:53:39.053Z,0
2017-08-16T02:54:49.468Z,0
2017-08-16T02:55:59.820Z,0
2017-08-16T02:57:10.172Z,0
2017-08-16T02:58:20.230Z,0
2017-08-16T02:59:30.586Z,0
2017-08-16T03:00:40.999Z,0
2017-08-16T03:33:10.740Z,24
2017-08-16T03:34:20.765Z,24
2017-08-16T03:35:30.795Z,32
2017-08-16T03:36:40.797Z,36
2017-08-16T03:37:54.043Z,40
2017-08-16T03:39:04.494Z,52
2017-08-16T03:40:14.844Z,56
2017-08-16T03:41:25.199Z,64
2017-08-16T03:42:35.545Z,72
2017-08-16T03:43:45.568Z,84
2017-08-16T03:44:55.957Z,96
2017-08-16T03:46:06.300Z,112
2017-08-16T03:47:18.456Z,124
2017-08-16T03:48:28.809Z,140
2017-08-16T03:49:38.830Z,148
2017-08-16T03:50:48.917Z,164
2017-08-16T03:51:59.263Z,184
2017-08-16T03:53:09.610Z,204
2017-08-16T03:54:19.957Z,228
2017-08-16T03:55:30.300Z,252
2017-08-16T03:56:40.387Z,276
2017-08-16T03:57:50.722Z,304
2017-08-16T03:59:00.763Z,328
2017-08-16T04:00:13.172Z,356
2017-08-16T04:01:22.898Z,384
2017-08-16T04:02:33.290Z,412
2017-08-16T04:03:43.630Z,444
2017-08-16T04:04:53.974Z,464
2017-08-16T04:06:04.021Z,492
2017-08-16T04:07:14.069Z,508
2017-08-16T04:08:24.152Z,532
2017-08-16T04:09:34.510Z,556
2017-08-16T04:10:46.295Z,588
2017-08-16T04:11:56.647Z,620
2017-08-16T04:13:06.984Z,656
2017-08-16T04:14:17.388Z,692
2017-08-16T04:15:27.743Z,732
2017-08-16T04:16:38.077Z,776
2017-08-16T04:17:48.442Z,816
2017-08-16T04:18:58.795Z,848
2017-08-16T04:20:08.875Z,888
2017-08-16T04:21:19.224Z,956
2017-08-16T04:22:29.273Z,1016
2017-08-16T04:23:39.626Z,1044
2017-08-16T04:24:49.687Z,1312
2017-08-16T04:26:00.094Z,1772
2017-08-16T04:27:10.442Z,1364
2017-08-16T04:28:20.786Z,1264
2017-08-16T04:29:30.832Z,1376
2017-08-16T04:30:41.183Z,1528
2017-08-16T04:31:51.606Z,2028
2017-08-16T04:33:01.968Z,2440
2017-08-16T04:34:12.315Z,3308
2017-08-16T04:35:22.361Z,3336
2017-08-16T04:36:32.399Z,2724
2017-08-16T04:37:42.815Z,2224
2017-08-16T04:38:53.165Z,3276
2017-08-16T04:40:03.522Z,4668
2017-08-16T04:41:17.583Z,6084
2017-08-16T04:42:27.924Z,4200
2017-08-16T04:43:38.027Z,2552
2017-08-16T04:44:48.437Z,4164
2017-08-16T04:45:58.790Z,3840
2017-08-16T04:47:09.170Z,2384
2017-08-16T04:48:19.204Z,2704
2017-08-16T04:49:31.460Z,3892
2017-08-16T04:50:41.523Z,4388
2017-08-16T04:51:51.872Z,5012
2017-08-16T04:53:02.216Z,4544
2017-08-16T04:54:12.560Z,6860
2017-08-16T04:55:22.989Z,8452
2017-08-16T04:56:33.335Z,8580
2017-08-16T04:57:43.371Z,9116
2017-08-16T04:58:53.721Z,9248
2017-08-16T05:00:04.093Z,9044
2017-08-16T05:01:14.187Z,9004
2017-08-16T05:02:24.239Z,9276
2017-08-16T05:03:34.598Z,9384
2017-08-16T05:04:44.963Z,9180
2017-08-16T05:05:59.711Z,9128
2017-08-16T05:07:09.798Z,9196
2017-08-16T05:08:19.845Z,9268
2017-08-16T05:09:30.207Z,9144
2017-08-16T05:10:40.252Z,7984
2017-08-16T05:11:50.297Z,8076
2017-08-16T05:13:00.394Z,9364
2017-08-16T05:14:10.739Z,9280
2017-08-16T05:15:20.776Z,9512
2017-08-16T05:16:31.139Z,8956
2017-08-16T05:17:41.492Z,9092
2017-08-16T05:18:51.899Z,8160
2017-08-16T05:20:01.632Z,7724
2017-08-16T05:21:11.673Z,8700
2017-08-16T05:22:21.401Z,8432
2017-08-16T05:23:31.778Z,9008
2017-08-16T05:24:41.864Z,9516
2017-08-16T05:25:52.227Z,9628
2017-08-16T05:27:02.269Z,10032
2017-08-16T05:28:12.627Z,10096
2017-08-16T05:29:22.990Z,10072
2017-08-16T05:30:33.079Z,10188
2017-08-16T05:31:43.416Z,10044
2017-08-16T05:32:53.155Z,9456
2017-08-16T05:34:03.207Z,9040
2017-08-16T05:35:13.575Z,8428
2017-08-16T05:36:23.990Z,8008
2017-08-16T05:37:34.351Z,7744
2017-08-16T05:38:44.385Z,7552
2017-08-16T05:39:54.740Z,7456
2017-08-16T05:41:05.110Z,8088
2017-08-16T05:42:15.514Z,8516
2017-08-16T05:43:25.853Z,8780
2017-08-16T05:44:35.894Z,8984
2017-08-16T05:45:46.248Z,9148
2017-08-16T05:46:56.292Z,9332
2017-08-16T05:48:06.701Z,9428
2017-08-16T05:49:17.054Z,9316
2017-08-16T05:50:27.422Z,7356
2017-08-16T05:51:37.789Z,6844
2017-08-16T05:52:48.150Z,8472
2017-08-16T05:53:58.242Z,7468
2017-08-16T05:55:08.648Z,4784
2017-08-16T05:56:19.007Z,3988
2017-08-16T05:57:28.730Z,3936
2017-08-16T05:58:39.076Z,3928
2017-08-16T05:59:49.477Z,3900
2017-08-16T06:00:59.524Z,3876
2017-08-16T06:02:09.898Z,3872
2017-08-16T06:03:20.253Z,3864
2017-08-16T06:04:30.603Z,3904
2017-08-16T06:05:41.044Z,3924
2017-08-16T06:06:51.400Z,3868
2017-08-16T06:08:01.758Z,3828
2017-08-16T06:09:12.118Z,3820
2017-08-16T06:10:22.508Z,3888
2017-08-16T06:11:32.595Z,3908
2017-08-16T06:12:42.955Z,3936
2017-08-16T06:13:53.291Z,3960
2017-08-16T06:15:03.321Z,3984
2017-08-16T06:16:13.679Z,3948
2017-08-16T06:17:24.091Z,3644
2017-08-16T06:18:34.453Z,3704
2017-08-16T06:19:44.787Z,3976
2017-08-16T06:20:54.838Z,4024
2017-08-16T06:22:05.199Z,4048
2017-08-16T06:23:15.612Z,4064
2017-08-16T06:24:25.684Z,4088
2017-08-16T06:25:36.043Z,4096
2017-08-16T06:26:46.407Z,4088
2017-08-16T06:27:56.500Z,4104
2017-08-16T06:29:06.902Z,4108
2017-08-16T06:30:17.269Z,4108
2017-08-16T06:31:27.628Z,4152
2017-08-16T06:32:37.978Z,4248
2017-08-16T06:33:48.340Z,4244
2017-08-16T06:34:58.744Z,4172
2017-08-16T06:36:09.119Z,4252
2017-08-16T06:37:19.164Z,4332
2017-08-16T06:38:29.226Z,4364
2017-08-16T06:39:39.577Z,4268
2017-08-16T06:40:50.996Z,4252
2017-08-16T06:42:01.348Z,4180
2017-08-16T06:43:11.712Z,4320
2017-08-16T06:44:22.062Z,4352
2017-08-16T06:45:32.428Z,4364
2017-08-16T06:46:42.852Z,4320
2017-08-16T06:47:53.198Z,4296
2017-08-16T06:49:03.579Z,4376
2017-08-16T06:50:13.973Z,4388
2017-08-16T06:51:24.308Z,4388
2017-08-16T06:52:34.731Z,4412
2017-08-16T06:53:45.068Z,4452
2017-08-16T06:54:55.418Z,4472
2017-08-16T06:56:05.779Z,4496
2017-08-16T06:57:15.824Z,4516
2017-08-16T06:58:26.232Z,4528
2017-08-16T06:59:36.598Z,4556
2017-08-16T07:00:46.954Z,4580
2017-08-16T07:01:57.317Z,4596
2017-08-16T07:03:07.682Z,4612
2017-08-16T07:04:17.765Z,4628
2017-08-16T07:05:28.124Z,4648
2017-08-16T07:06:38.507Z,4632
2017-08-16T07:07:48.865Z,4668
2017-08-16T07:08:59.222Z,4680
2017-08-16T07:10:09.381Z,4692
2017-08-16T07:11:23.541Z,4724
2017-08-16T07:12:33.892Z,4744
2017-08-16T07:13:44.255Z,4764
2017-08-16T07:14:54.314Z,4780
2017-08-16T07:16:04.732Z,4796
2017-08-16T07:17:14.465Z,4812
2017-08-16T07:18:24.536Z,4820
2017-08-16T07:19:34.602Z,4832
2017-08-16T07:20:44.959Z,4848
2017-08-16T07:21:55.092Z,4868
2017-08-16T07:23:05.447Z,4884
2017-08-16T07:24:15.799Z,4912
2017-08-16T07:25:26.145Z,4932
2017-08-16T07:26:36.511Z,4948
2017-08-16T07:27:46.929Z,4964
2017-08-16T07:28:57.268Z,4984
2017-08-16T07:30:07.643Z,4996
2017-08-16T07:31:18.005Z,5032
2017-08-16T07:32:28.350Z,5020
2017-08-16T07:33:38.441Z,5040
2017-08-16T07:34:48.493Z,5068
2017-08-16T07:35:58.836Z,5100
2017-08-16T07:37:08.902Z,5104
2017-08-16T07:38:19.278Z,5112
2017-08-16T07:39:29.353Z,5144
2017-08-16T07:40:39.751Z,5164
2017-08-16T07:41:49.794Z,5188
2017-08-16T07:43:00.144Z,5220
2017-08-16T07:44:10.479Z,5244
2017-08-16T07:45:20.568Z,5248
2017-08-16T07:46:30.610Z,5260
2017-08-16T07:47:40.995Z,5260
2017-08-16T07:48:51.032Z,5280
2017-08-16T07:50:01.405Z,5296
2017-08-16T07:51:11.813Z,5316
2017-08-16T07:52:21.849Z,5332
2017-08-16T07:53:32.217Z,5328
2017-08-16T07:54:42.585Z,5348
2017-08-16T07:55:52.631Z,5372
2017-08-16T07:57:03.054Z,5384
2017-08-16T07:58:13.401Z,5380
2017-08-16T07:59:23.432Z,5408
2017-08-16T08:00:33.488Z,5436
2017-08-16T08:01:43.849Z,5476
2017-08-16T08:02:53.625Z,5512
2017-08-16T08:04:03.985Z,5540
2017-08-16T08:05:14.326Z,5556
2017-08-16T08:06:24.687Z,5580
2017-08-16T08:07:35.061Z,5600
2017-08-16T08:08:45.462Z,5604
2017-08-16T08:09:55.847Z,5628
2017-08-16T08:11:06.196Z,5640
2017-08-16T08:12:16.538Z,5664
2017-08-16T08:13:27.089Z,5668
2017-08-16T08:14:37.532Z,5692
2017-08-16T08:15:47.884Z,5692
2017-08-16T08:16:57.942Z,5736
2017-08-16T08:18:08.307Z,5744
2017-08-16T08:19:18.345Z,5776
2017-08-16T08:20:28.735Z,5776
2017-08-16T08:21:38.792Z,5804
2017-08-16T08:22:49.546Z,5824
2017-08-16T08:23:59.911Z,5856
2017-08-16T08:25:09.971Z,5860
2017-08-16T08:26:20.086Z,5880
2017-08-16T08:27:30.429Z,5924
2017-08-16T08:28:40.472Z,5928
2017-08-16T08:29:50.832Z,5928
2017-08-16T08:31:01.193Z,5948
2017-08-16T08:32:11.284Z,5968
2017-08-16T08:33:21.651Z,6020
2017-08-16T08:34:32.047Z,5992
2017-08-16T08:35:42.393Z,6004
2017-08-16T08:36:54.687Z,5988
2017-08-16T08:38:04.815Z,5984
2017-08-16T08:39:15.163Z,5992
2017-08-16T08:40:25.500Z,5992
2017-08-16T08:41:35.881Z,5984
2017-08-16T08:42:46.246Z,5980
2017-08-16T08:43:56.903Z,5936
2017-08-16T08:45:06.658Z,5932
2017-08-16T08:46:17.022Z,5976
2017-08-16T08:47:27.072Z,5984
2017-08-16T08:48:37.426Z,6024
2017-08-16T08:49:47.824Z,6044
2017-08-16T08:50:58.205Z,6060
2017-08-16T08:52:08.565Z,6080
2017-08-16T08:53:18.925Z,6132
2017-08-16T08:54:29.285Z,6108
2017-08-16T08:55:39.700Z,6112
2017-08-16T08:56:49.744Z,6112
2017-08-16T08:58:01.173Z,6132
2017-08-16T08:59:11.528Z,6152
2017-08-16T09:00:21.896Z,6132
2017-08-16T09:01:32.337Z,6144
2017-08-16T09:02:42.364Z,6148
2017-08-16T09:03:52.613Z,6136
2017-08-16T09:05:02.961Z,6144
2017-08-16T09:06:15.717Z,6176
2017-08-16T09:07:26.165Z,6144
2017-08-16T09:08:36.218Z,6160
2017-08-16T09:09:48.979Z,6164
2017-08-16T09:11:00.622Z,6188
2017-08-16T09:12:10.703Z,6172
2017-08-16T09:13:21.094Z,6192
2017-08-16T09:14:31.459Z,6136
2017-08-16T09:15:41.853Z,6168
2017-08-16T09:16:52.227Z,6200
2017-08-16T09:18:03.667Z,6124
2017-08-16T09:19:13.782Z,6060
2017-08-16T09:20:23.837Z,6088
2017-08-16T09:21:35.906Z,6112
2017-08-16T09:22:45.938Z,6096
2017-08-16T09:23:56.305Z,6088
2017-08-16T09:25:06.717Z,6132
2017-08-16T09:26:17.079Z,6176
2017-08-16T09:27:27.447Z,6220
2017-08-16T09:28:37.806Z,6216
2017-08-16T09:29:48.149Z,6240
2017-08-16T09:30:58.540Z,6316
2017-08-16T09:32:08.896Z,6356
2017-08-16T09:33:21.699Z,6344
2017-08-16T09:34:32.052Z,6400
2017-08-16T09:35:43.405Z,6420
2017-08-16T09:36:53.829Z,6444
2017-08-16T09:38:04.209Z,6308
2017-08-16T09:39:14.553Z,6440
2017-08-16T09:40:24.599Z,6416
2017-08-16T09:41:34.648Z,6364
2017-08-16T09:42:45.028Z,6304
2017-08-16T09:43:55.377Z,6252
2017-08-16T09:45:05.114Z,6268
2017-08-16T09:46:17.584Z,6304
2017-08-16T09:47:28.055Z,6248
2017-08-16T09:48:38.464Z,6296
2017-08-16T09:49:48.821Z,6344
2017-08-16T09:50:59.178Z,6452
2017-08-16T09:52:09.546Z,6496
2017-08-16T09:53:22.065Z,6532
2017-08-16T09:54:32.180Z,6652
2017-08-16T09:55:41.922Z,6648
2017-08-16T09:56:52.284Z,6664
2017-08-16T09:58:04.717Z,6672
2017-08-16T09:59:15.094Z,6696
2017-08-16T10:00:25.506Z,6684
2017-08-16T10:01:35.887Z,6724
2017-08-16T10:02:47.488Z,6648
2017-08-16T10:03:57.544Z,6804
2017-08-16T10:05:07.946Z,6688
2017-08-16T10:06:18.364Z,6784
2017-08-16T10:07:28.724Z,6796
2017-08-16T10:08:38.767Z,6792
2017-08-16T10:09:49.136Z,6772
2017-08-16T10:10:58.892Z,6728
2017-08-16T10:12:09.299Z,6760
2017-08-16T10:13:19.340Z,6712
2017-08-16T10:14:29.070Z,6736
2017-08-16T10:15:39.426Z,6744
2017-08-16T10:16:49.778Z,6756
2017-08-16T10:18:01.379Z,6740
2017-08-16T10:19:11.738Z,6744
2017-08-16T10:20:21.804Z,6784
2017-08-16T10:21:31.850Z,6876
2017-08-16T10:22:42.204Z,6868
2017-08-16T10:23:54.429Z,6856
2017-08-16T10:25:04.482Z,6880
2017-08-16T10:26:14.541Z,6724
2017-08-16T10:27:25.800Z,6716
2017-08-16T10:28:36.168Z,7032
2017-08-16T10:29:46.568Z,7072
2017-08-16T10:30:56.915Z,7048
2017-08-16T10:32:09.462Z,7044
2017-08-16T10:33:20.967Z,7064
2017-08-16T10:34:31.334Z,7188
2017-08-16T10:35:41.449Z,7236
2017-08-16T10:36:51.795Z,7308
2017-08-16T10:38:01.842Z,7228
2017-08-16T10:39:13.773Z,7280
2017-08-16T10:40:24.142Z,7216
2017-08-16T10:41:34.239Z,7380
2017-08-16T10:42:44.292Z,7624
2017-08-16T10:43:56.906Z,7660
2017-08-16T10:45:07.276Z,7724
2017-08-16T10:46:17.644Z,7836
2017-08-16T10:47:28.070Z,7920
2017-08-16T10:48:38.109Z,7896
2017-08-16T10:49:49.362Z,8132
2017-08-16T10:50:59.727Z,8348
2017-08-16T10:52:10.117Z,8424
2017-08-16T10:53:20.542Z,8592
2017-08-16T10:54:35.120Z,8780
2017-08-16T10:55:45.497Z,8960
2017-08-16T10:56:55.532Z,9244
2017-08-16T10:58:05.930Z,8000
2017-08-16T10:59:16.346Z,8528
2017-08-16T11:00:26.390Z,7964
2017-08-16T11:01:38.511Z,7144
2017-08-16T11:02:51.420Z,6600
2017-08-16T11:04:01.789Z,6712
2017-08-16T11:05:11.574Z,6620
2017-08-16T11:06:21.620Z,6272
2017-08-16T11:07:31.993Z,6392
2017-08-16T11:08:42.339Z,6688
2017-08-16T11:09:52.696Z,6936
2017-08-16T11:11:02.472Z,8040
2017-08-16T11:12:12.836Z,7924
2017-08-16T11:13:22.914Z,6972
2017-08-16T11:14:33.268Z,7156
2017-08-16T11:15:43.313Z,7420
2017-08-16T11:16:53.747Z,7680
2017-08-16T11:18:04.109Z,9532
2017-08-16T11:19:14.477Z,8260
2017-08-16T11:20:24.835Z,10576
2017-08-16T11:21:34.553Z,10388
2017-08-16T11:22:44.324Z,8660
2017-08-16T11:23:54.367Z,9936
2017-08-16T11:25:04.732Z,8212
2017-08-16T11:26:15.120Z,7700
2017-08-16T11:27:25.482Z,8944
2017-08-16T11:28:35.894Z,8220
2017-08-16T11:29:46.256Z,8456
2017-08-16T11:30:56.316Z,9004
2017-08-16T11:32:06.390Z,9240
2017-08-16T11:33:16.411Z,8196
2017-08-16T11:34:26.831Z,8420
2017-08-16T11:35:37.180Z,9284
2017-08-16T11:36:47.545Z,8580
2017-08-16T11:37:57.904Z,8668
2017-08-16T11:39:07.945Z,9520
2017-08-16T11:40:18.354Z,9824
2017-08-16T11:41:28.713Z,10584
2017-08-16T11:42:38.759Z,10080
2017-08-16T11:43:49.128Z,10412
2017-08-16T11:44:59.162Z,10132
2017-08-16T11:46:09.575Z,9288
2017-08-16T11:47:19.939Z,8368
2017-08-16T11:48:30.320Z,7580
2017-08-16T11:49:40.703Z,7552
2017-08-16T11:50:50.766Z,7288
2017-08-16T11:52:00.554Z,7244
2017-08-16T11:53:10.916Z,7420
2017-08-16T11:54:21.295Z,7512
2017-08-16T11:55:31.645Z,7792
2017-08-16T11:56:42.009Z,12308
2017-08-16T11:57:52.104Z,12396
2017-08-16T11:59:02.152Z,12536
2017-08-16T12:00:12.518Z,12476
2017-08-16T12:01:22.567Z,12372
2017-08-16T12:02:32.651Z,12092
2017-08-16T12:03:43.059Z,11940
2017-08-16T12:04:53.425Z,11564
2017-08-16T12:06:03.806Z,11404
2017-08-16T12:07:14.177Z,10956
2017-08-16T12:08:24.540Z,10704
2017-08-16T12:09:34.951Z,10460
2017-08-16T12:10:45.316Z,9992
2017-08-16T12:11:55.692Z,9368
2017-08-16T12:13:06.047Z,9200
2017-08-16T12:14:16.094Z,9028
2017-08-16T12:15:28.033Z,9140
2017-08-16T12:16:38.388Z,8932
2017-08-16T12:17:48.439Z,8384
2017-08-16T12:18:58.804Z,7832
2017-08-16T12:20:09.185Z,7916
2017-08-16T12:21:19.590Z,8580
2017-08-16T12:22:29.647Z,7932
2017-08-16T12:23:40.018Z,7972
2017-08-16T12:24:50.060Z,7476
2017-08-16T12:26:00.463Z,7700
2017-08-16T12:27:10.558Z,7352
2017-08-16T12:28:20.277Z,7228
2017-08-16T12:29:30.638Z,7140
2017-08-16T12:30:40.999Z,7060
2017-08-16T12:31:51.359Z,6316
2017-08-16T12:33:01.812Z,6644
2017-08-16T12:34:11.894Z,7008
2017-08-16T12:35:22.250Z,7424
2017-08-16T12:36:32.620Z,7132
2017-08-16T12:37:42.971Z,6868
2017-08-16T12:38:53.374Z,7196
2017-08-16T12:40:05.317Z,7528
2017-08-16T12:41:15.696Z,7520
2017-08-16T12:42:26.084Z,7432
2017-08-16T12:43:37.771Z,8008
2017-08-16T12:44:48.132Z,8164
2017-08-16T12:45:58.511Z,7956
2017-08-16T12:47:08.573Z,8276
2017-08-16T12:48:18.619Z,8652
2017-08-16T12:49:29.024Z,8652
2017-08-16T12:50:39.094Z,8756
2017-08-16T12:51:49.139Z,8720
2017-08-16T12:52:58.884Z,8704
2017-08-16T12:54:09.224Z,8864
2017-08-16T12:55:19.315Z,8716
2017-08-16T12:56:29.692Z,8908
2017-08-16T12:57:40.057Z,8964
2017-08-16T12:58:50.121Z,8980
2017-08-16T13:00:00.197Z,9028
2017-08-16T13:01:10.604Z,8664
2017-08-16T13:02:20.333Z,8940
2017-08-16T13:03:30.692Z,8468
2017-08-16T13:04:41.378Z,8584
2017-08-16T13:05:51.424Z,8296
2017-08-16T13:07:01.834Z,7472
2017-08-16T13:08:11.899Z,8048
2017-08-16T13:09:22.279Z,7700
2017-08-16T13:10:32.028Z,7836
2017-08-16T13:11:42.378Z,8116
2017-08-16T13:12:52.474Z,7824
2017-08-16T13:14:02.856Z,6572
2017-08-16T13:15:13.225Z,6896
2017-08-16T13:16:23.583Z,7480
2017-08-16T13:17:33.947Z,7564
2017-08-16T13:18:44.369Z,7524
2017-08-16T13:19:54.100Z,7432
2017-08-16T13:21:04.532Z,7356
2017-08-16T13:22:14.887Z,7212
2017-08-16T13:23:25.238Z,7568
2017-08-16T13:24:35.323Z,7736
2017-08-16T13:25:46.248Z,5988
2017-08-16T13:26:56.302Z,7780
2017-08-16T13:28:06.031Z,7628
2017-08-16T13:29:16.388Z,7528
2017-08-16T13:30:26.498Z,7624
2017-08-16T13:31:36.561Z,7384
2017-08-16T13:32:46.915Z,7376
2017-08-16T13:33:56.948Z,7188
2017-08-16T13:35:07.345Z,7280
2017-08-16T13:36:17.391Z,7424
2017-08-16T13:37:27.425Z,7228
2017-08-16T13:38:37.774Z,7116
2017-08-16T13:39:48.200Z,7016
2017-08-16T13:40:58.577Z,6768
2017-08-16T13:42:08.620Z,6644
2017-08-16T13:43:18.993Z,6208
2017-08-16T13:44:29.051Z,6200
2017-08-16T13:45:39.155Z,6096
2017-08-16T13:46:49.506Z,6108
2017-08-16T13:48:01.715Z,6180
2017-08-16T13:49:12.063Z,6316
2017-08-16T13:50:22.127Z,6120
2017-08-16T13:51:32.543Z,6092
2017-08-16T13:52:42.901Z,6452
2017-08-16T13:53:53.264Z,6472
2017-08-16T13:55:03.638Z,6916
2017-08-16T13:56:14.006Z,6944
2017-08-16T13:57:24.125Z,6656
2017-08-16T13:58:34.482Z,6488
2017-08-16T13:59:44.863Z,6712
2017-08-16T14:00:55.225Z,7228
2017-08-16T14:02:05.289Z,7480
2017-08-16T14:03:14.755Z,7628
2017-08-16T14:04:24.787Z,7544
2017-08-16T14:05:34.845Z,7400
2017-08-16T14:06:44.879Z,7564
2017-08-16T14:07:54.936Z,7784
2017-08-16T14:09:05.333Z,8020
2017-08-16T14:10:15.685Z,8032
2017-08-16T14:11:26.039Z,8116
2017-08-16T14:12:36.416Z,8160
2017-08-16T14:13:46.779Z,8100
2017-08-16T14:14:57.188Z,5952
2017-08-16T14:16:07.224Z,5784
2017-08-16T14:17:17.578Z,8152
2017-08-16T14:18:27.961Z,5876
2017-08-16T14:19:38.002Z,5420
2017-08-16T14:20:48.419Z,5864
2017-08-16T14:21:58.471Z,7348
2017-08-16T14:23:08.521Z,7532
2017-08-16T14:24:18.887Z,7424
2017-08-16T14:25:28.955Z,7232
2017-08-16T14:26:39.359Z,7292
2017-08-16T14:27:49.719Z,7036
2017-08-16T14:29:00.085Z,7232
2017-08-16T14:30:10.444Z,7376
2017-08-16T14:31:20.796Z,7212
2017-08-16T14:32:31.195Z,6900
2017-08-16T14:33:41.566Z,6636
2017-08-16T14:34:51.617Z,6180
2017-08-16T14:36:02.015Z,6204
2017-08-16T14:37:12.379Z,6140
2017-08-16T14:38:22.796Z,6152
2017-08-16T14:39:32.886Z,6224
2017-08-16T14:40:43.253Z,6284
2017-08-16T14:41:53.605Z,6328
2017-08-16T14:43:03.977Z,6240
2017-08-16T14:44:14.385Z,6208
2017-08-16T14:45:24.423Z,5988
2017-08-16T14:46:34.778Z,5816
2017-08-16T14:47:45.141Z,5772
2017-08-16T14:48:55.507Z,5832
2017-08-16T14:50:05.938Z,6004
2017-08-16T14:51:16.302Z,6020
2017-08-16T14:52:26.660Z,5680
2017-08-16T14:53:37.015Z,5568
2017-08-16T14:54:47.380Z,5592
2017-08-16T14:55:57.484Z,5516
2017-08-16T14:57:07.540Z,5400
2017-08-16T14:58:17.912Z,5500
2017-08-16T14:59:28.297Z,5460
2017-08-16T15:00:38.638Z,5524
2017-08-16T15:01:49.043Z,5632
2017-08-16T15:02:59.440Z,5624
2017-08-16T15:04:09.805Z,5720
2017-08-16T15:05:20.163Z,5732
2017-08-16T15:06:30.535Z,5864
2017-08-16T15:07:40.631Z,6044
2017-08-16T15:08:51.016Z,5928
2017-08-16T15:10:01.402Z,5788
2017-08-16T15:11:11.757Z,5500
2017-08-16T15:12:21.528Z,5604
2017-08-16T15:13:31.930Z,5244
2017-08-16T15:14:43.329Z,5564
2017-08-16T15:15:53.394Z,5608
2017-08-16T15:17:03.441Z,5512
2017-08-16T15:18:13.815Z,5232
2017-08-16T15:19:24.229Z,5296
2017-08-16T15:20:34.298Z,5276
2017-08-16T15:21:44.655Z,5196
2017-08-16T15:22:55.029Z,5212
2017-08-16T15:24:05.116Z,5244
2017-08-16T15:25:15.213Z,5156
2017-08-16T15:26:25.563Z,5052
2017-08-16T15:27:35.919Z,4900
2017-08-16T15:28:59.040Z,4856
2017-08-16T15:30:09.156Z,4956
2017-08-16T15:31:19.529Z,4976
2017-08-16T15:32:31.740Z,4976
2017-08-16T15:33:42.098Z,5004
2017-08-16T15:34:52.186Z,4768
2017-08-16T15:36:02.592Z,4768
2017-08-16T15:37:12.951Z,4776
2017-08-16T15:38:22.990Z,4720
2017-08-16T15:39:33.364Z,4308
2017-08-16T15:40:43.086Z,3880
2017-08-16T15:41:52.889Z,3776
2017-08-16T15:43:03.253Z,3688
2017-08-16T15:44:13.617Z,3604
2017-08-16T15:45:23.972Z,3516
2017-08-16T15:46:36.167Z,3412
2017-08-16T15:47:46.575Z,3344
2017-08-16T15:48:56.996Z,3276
2017-08-16T15:50:07.353Z,3296
2017-08-16T15:51:17.744Z,3104
2017-08-16T15:52:27.797Z,3052
2017-08-16T15:53:38.204Z,3108
2017-08-16T15:54:47.942Z,3180
2017-08-16T15:55:58.313Z,3264
2017-08-16T15:57:08.687Z,3380
2017-08-16T15:58:19.047Z,3496
2017-08-16T15:59:29.464Z,3768
2017-08-16T16:00:39.522Z,3820
2017-08-16T16:01:49.877Z,3636
2017-08-16T16:03:00.249Z,3256
2017-08-16T16:04:10.626Z,3120
2017-08-16T16:05:20.726Z,2984
2017-08-16T16:06:31.085Z,2848
2017-08-16T16:07:41.453Z,2740
2017-08-16T16:08:51.823Z,2668
2017-08-16T16:10:02.185Z,2628
2017-08-16T16:11:12.617Z,2608
2017-08-16T16:12:23.004Z,2568
2017-08-16T16:13:33.487Z,2492
2017-08-16T16:14:43.865Z,2396
2017-08-16T16:15:53.919Z,2300
2017-08-16T16:17:04.326Z,2272
2017-08-16T16:18:14.679Z,2308
2017-08-16T16:19:25.031Z,2372
2017-08-16T16:20:35.366Z,2420
2017-08-16T16:21:46.725Z,2432
2017-08-16T16:22:57.197Z,2420
2017-08-16T16:24:07.552Z,2400
2017-08-16T16:25:17.909Z,2412
2017-08-16T16:26:27.959Z,2456